createdAt,value
2017-10-02T00:00:24.391Z,975.18
2017-10-02T00:01:24.229Z,975.16
2017-10-02T00:02:24.397Z,975.16
2017-10-02T00:03:24.748Z,975.14
2017-10-02T00:04:24.567Z,975.13
2017-10-02T00:05:24.637Z,975.12
2017-10-02T00:06:24.483Z,975.14
2017-10-02T00:07:24.678Z,975.15
2017-10-02T00:08:24.579Z,975.13
2017-10-02T00:09:25.010Z,975.16
2017-10-02T00:10:24.741Z,975.11
2017-10-02T00:11:25.124Z,975.10
2017-10-02T00:12:25.180Z,975.12
2017-10-02T00:13:25.263Z,975.05
2017-10-02T00:14:25.206Z,975.07
2017-10-02T00:15:24.900Z,975.03
2017-10-02T00:16:24.971Z,975.04
2017-10-02T00:17:25.444Z,975.06
2017-10-02T00:18:25.144Z,975.07
2017-10-02T00:19:25.437Z,975.03
2017-10-02T00:20:25.690Z,975.08
2017-10-02T00:21:25.194Z,975.05
2017-10-02T00:22:25.784Z,975.05
2017-10-02T00:23:25.722Z,975.03
2017-10-02T00:24:25.707Z,975.04
2017-10-02T00:25:25.429Z,975.05
2017-10-02T00:26:25.457Z,975.03
2017-10-02T00:27:25.655Z,975.01
2017-10-02T00:28:26.141Z,975.02
2017-10-02T00:29:25.572Z,975.00
2017-10-02T00:30:25.603Z,975.07
2017-10-02T00:31:25.690Z,975.04
2017-10-02T00:32:25.965Z,975.03
2017-10-02T00:33:26.091Z,975.05
2017-10-02T00:34:26.498Z,975.04
2017-10-02T00:35:25.813Z,975.01
2017-10-02T00:36:26.059Z,975.02
2017-10-02T00:37:26.105Z,974.99
2017-10-02T00:38:26.305Z,975.02
2017-10-02T00:39:26.200Z,975.00
2017-10-02T00:40:26.087Z,975.00
2017-10-02T00:41:26.112Z,974.97
2017-10-02T00:42:26.257Z,974.99
2017-10-02T00:43:26.533Z,974.96
2017-10-02T00:44:27.042Z,974.93
2017-10-02T00:45:26.539Z,974.96
2017-10-02T00:46:26.650Z,974.93
2017-10-02T00:47:26.625Z,974.93
2017-10-02T00:48:26.849Z,974.94
2017-10-02T00:49:26.856Z,974.92
2017-10-02T00:50:26.787Z,974.94
2017-10-02T00:51:26.942Z,974.96
2017-10-02T00:52:26.681Z,974.96
2017-10-02T00:53:26.961Z,974.95
2017-10-02T00:54:26.979Z,974.99
2017-10-02T00:55:27.035Z,974.99
2017-10-02T00:56:27.195Z,975.02
2017-10-02T00:57:27.113Z,974.99
2017-10-02T00:58:27.145Z,975.03
2017-10-02T00:59:27.218Z,975.06
2017-10-02T01:00:27.304Z,975.04
2017-10-02T01:01:27.258Z,975.03
2017-10-02T01:02:27.203Z,975.05
2017-10-02T01:03:27.231Z,975.06
2017-10-02T01:04:27.523Z,975.01
2017-10-02T01:05:27.245Z,974.99
2017-10-02T01:06:27.324Z,975.01
2017-10-02T01:07:27.323Z,975.01
2017-10-02T01:08:27.436Z,974.99
2017-10-02T01:09:27.809Z,975.00
2017-10-02T01:10:27.630Z,974.99
2017-10-02T01:11:28.401Z,974.98
2017-10-02T01:12:27.845Z,975.00
2017-10-02T01:13:28.200Z,975.00
2017-10-02T01:14:28.312Z,974.98
2017-10-02T01:15:28.285Z,974.89
2017-10-02T01:16:28.583Z,974.96
2017-10-02T01:17:28.525Z,974.98
2017-10-02T01:18:28.326Z,974.97
2017-10-02T01:19:27.915Z,975.01
2017-10-02T01:20:28.534Z,975.00
2017-10-02T01:21:28.602Z,975.01
2017-10-02T01:22:28.800Z,975.04
2017-10-02T01:23:28.857Z,975.03
2017-10-02T01:24:28.768Z,975.05
2017-10-02T01:25:28.881Z,975.03
2017-10-02T01:26:28.509Z,975.06
2017-10-02T01:27:28.492Z,975.03
2017-10-02T01:28:28.489Z,975.05
2017-10-02T01:29:28.832Z,975.07
2017-10-02T01:30:28.972Z,975.07
2017-10-02T01:31:28.676Z,975.04
2017-10-02T01:32:28.777Z,975.07
2017-10-02T01:33:28.685Z,975.09
2017-10-02T01:34:29.040Z,975.07
2017-10-02T01:35:28.816Z,975.08
2017-10-02T01:36:29.123Z,975.08
2017-10-02T01:37:28.803Z,975.09
2017-10-02T01:38:29.059Z,975.10
2017-10-02T01:39:29.204Z,975.09
2017-10-02T01:40:29.420Z,975.09
2017-10-02T01:41:29.186Z,975.12
2017-10-02T01:42:29.628Z,975.10
2017-10-02T01:43:29.144Z,975.09
2017-10-02T01:44:29.151Z,975.08
2017-10-02T01:45:29.239Z,975.07
2017-10-02T01:46:29.391Z,975.08
2017-10-02T01:47:29.520Z,975.07
2017-10-02T01:48:29.415Z,975.11
2017-10-02T01:49:29.335Z,975.09
2017-10-02T01:50:29.856Z,975.09
2017-10-02T01:51:30.069Z,975.08
2017-10-02T01:52:29.490Z,975.05
2017-10-02T01:53:29.669Z,975.05
2017-10-02T01:54:29.916Z,975.03
2017-10-02T01:55:29.716Z,975.01
2017-10-02T01:56:30.184Z,975.04
2017-10-02T01:57:29.990Z,975.07
2017-10-02T01:58:30.112Z,975.08
2017-10-02T01:59:29.913Z,975.05
2017-10-02T02:00:29.915Z,975.04
2017-10-02T02:01:30.144Z,975.08
2017-10-02T02:02:30.368Z,975.09
2017-10-02T02:03:30.010Z,975.06
2017-10-02T02:04:30.109Z,975.05
2017-10-02T02:05:30.221Z,975.02
2017-10-02T02:06:30.661Z,974.99
2017-10-02T02:07:30.294Z,975.00
2017-10-02T02:08:30.246Z,975.01
2017-10-02T02:09:30.478Z,974.97
2017-10-02T02:10:30.344Z,975.03
2017-10-02T02:11:31.112Z,974.95
2017-10-02T02:12:30.928Z,975.00
2017-10-02T02:13:30.959Z,974.98
2017-10-02T02:14:30.679Z,974.92
2017-10-02T02:15:30.610Z,974.96
2017-10-02T02:16:30.765Z,974.95
2017-10-02T02:17:31.154Z,974.91
2017-10-02T02:18:30.797Z,974.88
2017-10-02T02:19:30.853Z,974.88
2017-10-02T02:20:31.235Z,974.85
2017-10-02T02:21:31.274Z,974.83
2017-10-02T02:22:31.045Z,974.85
2017-10-02T02:23:31.317Z,974.83
2017-10-02T02:24:31.316Z,974.84
2017-10-02T02:25:31.487Z,974.84
2017-10-02T02:26:31.143Z,974.82
2017-10-02T02:27:31.867Z,974.82
2017-10-02T02:28:31.206Z,974.82
2017-10-02T02:29:31.425Z,974.77
2017-10-02T02:30:31.535Z,974.78
2017-10-02T02:31:31.585Z,974.77
2017-10-02T02:32:31.557Z,974.75
2017-10-02T02:33:31.545Z,974.71
2017-10-02T02:34:31.802Z,974.74
2017-10-02T02:35:31.525Z,974.74
2017-10-02T02:36:31.598Z,974.70
2017-10-02T02:37:31.658Z,974.74
2017-10-02T02:38:31.809Z,974.75
2017-10-02T02:39:31.741Z,974.73
2017-10-02T02:40:31.705Z,974.75
2017-10-02T02:41:32.073Z,974.68
2017-10-02T02:42:31.908Z,974.70
2017-10-02T02:43:32.062Z,974.67
2017-10-02T02:44:32.095Z,974.67
2017-10-02T02:45:32.204Z,974.63
2017-10-02T02:46:32.404Z,974.68
2017-10-02T02:47:32.522Z,974.68
2017-10-02T02:48:32.607Z,974.72
2017-10-02T02:49:32.499Z,974.69
2017-10-02T02:50:32.506Z,974.69
2017-10-02T02:51:32.333Z,974.68
2017-10-02T02:52:32.359Z,974.68
2017-10-02T02:53:32.877Z,974.71
2017-10-02T02:54:32.886Z,974.69
2017-10-02T02:55:32.555Z,974.70
2017-10-02T02:56:32.813Z,974.67
2017-10-02T02:57:32.812Z,974.60
2017-10-02T02:58:32.920Z,974.62
2017-10-02T02:59:33.096Z,974.59
2017-10-02T03:00:32.966Z,974.62
2017-10-02T03:01:33.229Z,974.63
2017-10-02T03:02:32.989Z,974.57
2017-10-02T03:03:32.916Z,974.57
2017-10-02T03:04:33.605Z,974.55
2017-10-02T03:05:32.968Z,974.57
2017-10-02T03:06:33.007Z,974.56
2017-10-02T03:07:33.297Z,974.59
2017-10-02T03:08:33.527Z,974.56
2017-10-02T03:09:33.367Z,974.58
2017-10-02T03:10:33.591Z,974.60
2017-10-02T03:11:33.465Z,974.57
2017-10-02T03:12:33.337Z,974.57
2017-10-02T03:13:33.453Z,974.60
2017-10-02T03:14:33.810Z,974.58
2017-10-02T03:15:33.706Z,974.59
2017-10-02T03:16:33.678Z,974.58
2017-10-02T03:17:33.745Z,974.53
2017-10-02T03:18:33.731Z,974.54
2017-10-02T03:19:34.640Z,974.51
2017-10-02T03:20:33.767Z,974.55
2017-10-02T03:21:34.062Z,974.55
2017-10-02T03:22:33.794Z,974.48
2017-10-02T03:23:34.076Z,974.51
2017-10-02T03:24:34.052Z,974.51
2017-10-02T03:25:34.654Z,974.50
2017-10-02T03:26:34.286Z,974.53
2017-10-02T03:27:34.123Z,974.57
2017-10-02T03:28:34.161Z,974.57
2017-10-02T03:29:34.218Z,974.59
2017-10-02T03:30:34.421Z,974.61
2017-10-02T03:31:34.582Z,974.62
2017-10-02T03:32:34.314Z,974.59
2017-10-02T03:33:34.362Z,974.59
2017-10-02T03:34:34.476Z,974.57
2017-10-02T03:35:35.039Z,974.60
2017-10-02T03:36:34.599Z,974.60
2017-10-02T03:37:34.818Z,974.58
2017-10-02T03:38:34.828Z,974.63
2017-10-02T03:39:34.694Z,974.58
2017-10-02T03:40:35.011Z,974.62
2017-10-02T03:41:34.747Z,974.57
2017-10-02T03:42:34.717Z,974.62
2017-10-02T03:43:34.899Z,974.64
2017-10-02T03:44:35.044Z,974.63
2017-10-02T03:45:35.387Z,974.64
2017-10-02T03:46:35.010Z,974.63
2017-10-02T03:47:35.059Z,974.64
2017-10-02T03:48:35.225Z,974.68
2017-10-02T03:49:35.148Z,974.71
2017-10-02T03:50:35.626Z,974.67
2017-10-02T03:51:35.246Z,974.67
2017-10-02T03:52:35.321Z,974.72
2017-10-02T03:53:35.302Z,974.70
2017-10-02T03:54:35.368Z,974.70
2017-10-02T03:55:35.806Z,974.69
2017-10-02T03:56:36.012Z,974.69
2017-10-02T03:57:35.528Z,974.65
2017-10-02T03:58:35.601Z,974.69
2017-10-02T03:59:35.762Z,974.70
2017-10-02T04:00:35.568Z,974.69
2017-10-02T04:01:36.182Z,974.67
2017-10-02T04:02:35.613Z,974.64
2017-10-02T04:03:35.862Z,974.65
2017-10-02T04:04:35.781Z,974.65
2017-10-02T04:05:35.977Z,974.63
2017-10-02T04:06:36.193Z,974.64
2017-10-02T04:07:35.903Z,974.64
2017-10-02T04:08:36.146Z,974.59
2017-10-02T04:09:36.129Z,974.60
2017-10-02T04:10:36.279Z,974.59
2017-10-02T04:11:36.474Z,974.57
2017-10-02T04:12:36.252Z,974.59
2017-10-02T04:13:36.328Z,974.57
2017-10-02T04:14:36.474Z,974.56
2017-10-02T04:15:36.952Z,974.54
2017-10-02T04:16:36.858Z,974.52
2017-10-02T04:17:36.948Z,974.53
2017-10-02T04:18:36.515Z,974.51
2017-10-02T04:19:36.858Z,974.51
2017-10-02T04:20:36.539Z,974.52
2017-10-02T04:21:36.705Z,974.51
2017-10-02T04:22:37.030Z,974.55
2017-10-02T04:23:37.082Z,974.50
2017-10-02T04:24:36.979Z,974.48
2017-10-02T04:25:37.331Z,974.49
2017-10-02T04:26:37.087Z,974.47
2017-10-02T04:27:37.239Z,974.55
2017-10-02T04:28:37.062Z,974.51
2017-10-02T04:29:37.267Z,974.53
2017-10-02T04:30:37.332Z,974.55
2017-10-02T04:31:37.710Z,974.50
2017-10-02T04:32:37.439Z,974.55
2017-10-02T04:33:37.350Z,974.55
2017-10-02T04:34:37.290Z,974.57
2017-10-02T04:35:37.242Z,974.57
2017-10-02T04:36:37.721Z,974.56
2017-10-02T04:37:37.460Z,974.58
2017-10-02T04:38:37.777Z,974.63
2017-10-02T04:39:37.734Z,974.56
2017-10-02T04:40:37.573Z,974.60
2017-10-02T04:41:38.148Z,974.62
2017-10-02T04:42:38.257Z,974.59
2017-10-02T04:43:38.468Z,974.64
2017-10-02T04:44:38.033Z,974.62
2017-10-02T04:45:37.746Z,974.65
2017-10-02T04:46:37.764Z,974.66
2017-10-02T04:47:38.229Z,974.63
2017-10-02T04:48:38.112Z,974.64
2017-10-02T04:49:38.314Z,974.64
2017-10-02T04:50:38.033Z,974.67
2017-10-02T04:51:38.336Z,974.64
2017-10-02T04:52:38.547Z,974.66
2017-10-02T04:53:38.143Z,974.64
2017-10-02T04:54:38.635Z,974.62
2017-10-02T04:55:38.618Z,974.65
2017-10-02T04:56:38.461Z,974.68
2017-10-02T04:57:38.349Z,974.66
2017-10-02T04:58:38.698Z,974.65
2017-10-02T04:59:39.258Z,974.67
2017-10-02T05:00:38.962Z,974.69
2017-10-02T05:01:38.554Z,974.70
2017-10-02T05:02:38.561Z,974.74
2017-10-02T05:03:39.071Z,974.75
2017-10-02T05:04:38.847Z,974.72
2017-10-02T05:05:39.164Z,974.75
2017-10-02T05:06:39.174Z,974.78
2017-10-02T05:07:38.924Z,974.79
2017-10-02T05:08:38.888Z,974.80
2017-10-02T05:09:39.108Z,974.79
2017-10-02T05:10:38.966Z,974.78
2017-10-02T05:11:39.026Z,974.77
2017-10-02T05:12:39.243Z,974.80
2017-10-02T05:13:39.949Z,974.82
2017-10-02T05:14:39.246Z,974.79
2017-10-02T05:15:39.500Z,974.84
2017-10-02T05:16:39.254Z,974.83
2017-10-02T05:17:39.410Z,974.85
2017-10-02T05:18:39.775Z,974.86
2017-10-02T05:19:39.548Z,974.86
2017-10-02T05:20:39.677Z,974.88
2017-10-02T05:21:39.780Z,974.87
2017-10-02T05:22:39.476Z,974.90
2017-10-02T05:23:40.101Z,974.89
2017-10-02T05:24:40.015Z,974.92
2017-10-02T05:25:39.932Z,974.91
2017-10-02T05:26:40.034Z,974.93
2017-10-02T05:27:40.152Z,974.88
2017-10-02T05:28:40.154Z,974.91
2017-10-02T05:29:39.889Z,974.89
2017-10-02T05:30:40.262Z,974.89
2017-10-02T05:31:39.926Z,974.85
2017-10-02T05:32:40.049Z,974.87
2017-10-02T05:33:40.254Z,974.88
2017-10-02T05:34:40.233Z,974.89
2017-10-02T05:35:40.261Z,974.94
2017-10-02T05:36:40.302Z,974.91
2017-10-02T05:37:40.266Z,974.96
2017-10-02T05:38:40.263Z,974.99
2017-10-02T05:39:40.363Z,974.95
2017-10-02T05:40:40.558Z,974.94
2017-10-02T05:41:40.967Z,974.92
2017-10-02T05:42:41.468Z,974.92
2017-10-02T05:43:42.720Z,974.88
2017-10-02T05:44:44.672Z,974.86
2017-10-02T05:45:41.004Z,974.89
2017-10-02T05:46:46.707Z,974.87
2017-10-02T05:47:41.404Z,974.90
2017-10-02T05:48:41.111Z,974.92
2017-10-02T05:49:43.762Z,974.95
2017-10-02T05:50:41.214Z,974.96
2017-10-02T05:51:42.032Z,974.96
2017-10-02T05:52:41.343Z,974.96
2017-10-02T05:53:41.536Z,975.01
2017-10-02T05:54:41.572Z,974.95
2017-10-02T05:55:41.213Z,975.01
2017-10-02T05:56:41.700Z,974.99
2017-10-02T05:57:41.784Z,975.02
2017-10-02T05:58:41.793Z,974.99
2017-10-02T05:59:41.304Z,974.98
2017-10-02T06:00:42.065Z,975.00
2017-10-02T06:01:41.970Z,975.00
2017-10-02T06:02:41.992Z,975.02
2017-10-02T06:03:42.022Z,975.01
2017-10-02T06:04:41.580Z,975.01
2017-10-02T06:05:42.350Z,975.00
2017-10-02T06:06:42.158Z,975.02
2017-10-02T06:07:42.308Z,975.05
2017-10-02T06:08:42.361Z,975.02
2017-10-02T06:09:42.410Z,975.06
2017-10-02T06:10:42.433Z,975.00
2017-10-02T06:11:42.461Z,974.98
2017-10-02T06:12:42.563Z,974.99
2017-10-02T06:13:42.676Z,974.99
2017-10-02T06:14:42.633Z,974.95
2017-10-02T06:15:42.751Z,974.96
2017-10-02T06:16:42.729Z,974.96
2017-10-02T06:17:42.757Z,974.98
2017-10-02T06:18:42.856Z,974.96
2017-10-02T06:19:42.874Z,974.97
2017-10-02T06:20:42.995Z,974.99
2017-10-02T06:21:42.875Z,975.01
2017-10-02T06:22:42.980Z,975.02
2017-10-02T06:23:43.019Z,975.01
2017-10-02T06:24:43.134Z,975.02
2017-10-02T06:25:43.081Z,975.06
2017-10-02T06:26:43.255Z,975.12
2017-10-02T06:27:43.568Z,975.12
2017-10-02T06:28:43.183Z,975.11
2017-10-02T06:29:43.319Z,975.13
2017-10-02T06:30:42.993Z,975.11
2017-10-02T06:31:43.387Z,975.12
2017-10-02T06:32:43.550Z,975.15
2017-10-02T06:33:43.478Z,975.08
2017-10-02T06:34:43.474Z,975.06
2017-10-02T06:35:43.723Z,975.06
2017-10-02T06:36:43.156Z,975.05
2017-10-02T06:37:43.281Z,975.04
2017-10-02T06:38:43.634Z,975.07
2017-10-02T06:39:43.808Z,975.07
2017-10-02T06:40:43.934Z,975.04
2017-10-02T06:41:44.039Z,975.08
2017-10-02T06:42:43.869Z,975.08
2017-10-02T06:43:43.950Z,975.12
2017-10-02T06:44:44.164Z,975.16
2017-10-02T06:45:43.815Z,975.12
2017-10-02T06:46:43.866Z,975.15
2017-10-02T06:47:44.288Z,975.17
2017-10-02T06:48:44.308Z,975.19
2017-10-02T06:49:43.677Z,975.13
2017-10-02T06:50:43.765Z,975.16
2017-10-02T06:51:43.873Z,975.18
2017-10-02T06:52:43.854Z,975.13
2017-10-02T06:53:44.472Z,975.16
2017-10-02T06:54:44.265Z,975.17
2017-10-02T06:55:44.144Z,975.14
2017-10-02T06:56:44.841Z,975.13
2017-10-02T06:57:44.599Z,975.14
2017-10-02T06:58:44.528Z,975.11
2017-10-02T06:59:44.159Z,975.16
2017-10-02T07:00:44.261Z,975.16
2017-10-02T07:01:44.545Z,975.16
2017-10-02T07:02:44.255Z,975.17
2017-10-02T07:03:44.860Z,975.19
2017-10-02T07:04:45.461Z,975.16
2017-10-02T07:05:44.810Z,975.21
2017-10-02T07:06:44.534Z,975.20
2017-10-02T07:07:44.522Z,975.21
2017-10-02T07:08:45.282Z,975.19
2017-10-02T07:09:45.341Z,975.26
2017-10-02T07:10:44.829Z,975.21
2017-10-02T07:11:45.096Z,975.21
2017-10-02T07:12:44.997Z,975.24
2017-10-02T07:13:44.932Z,975.24
2017-10-02T07:14:45.034Z,975.26
2017-10-02T07:15:44.962Z,975.23
2017-10-02T07:16:45.032Z,975.23
2017-10-02T07:17:45.103Z,975.24
2017-10-02T07:18:45.272Z,975.23
2017-10-02T07:19:45.461Z,975.24
2017-10-02T07:20:45.882Z,975.26
2017-10-02T07:21:45.848Z,975.25
2017-10-02T07:22:45.846Z,975.22
2017-10-02T07:23:46.048Z,975.27
2017-10-02T07:24:46.066Z,975.26
2017-10-02T07:25:45.669Z,975.24
2017-10-02T07:26:45.639Z,975.23
2017-10-02T07:27:45.654Z,975.24
2017-10-02T07:28:45.887Z,975.21
2017-10-02T07:29:45.740Z,975.20
2017-10-02T07:30:45.652Z,975.21
2017-10-02T07:31:45.942Z,975.24
2017-10-02T07:32:46.034Z,975.20
2017-10-02T07:33:46.127Z,975.21
2017-10-02T07:34:46.463Z,975.19
2017-10-02T07:35:45.985Z,975.23
2017-10-02T07:36:46.589Z,975.21
2017-10-02T07:37:46.402Z,975.19
2017-10-02T07:38:46.004Z,975.19
2017-10-02T07:39:46.233Z,975.21
2017-10-02T07:40:46.791Z,975.24
2017-10-02T07:41:46.822Z,975.20
2017-10-02T07:42:46.527Z,975.24
2017-10-02T07:43:46.441Z,975.23
2017-10-02T07:44:46.557Z,975.24
2017-10-02T07:45:46.619Z,975.25
2017-10-02T07:46:46.851Z,975.27
2017-10-02T07:47:46.602Z,975.27
2017-10-02T07:48:47.595Z,975.24
2017-10-02T07:49:46.658Z,975.28
2017-10-02T07:50:47.057Z,975.20
2017-10-02T07:51:47.294Z,975.22
2017-10-02T07:52:46.999Z,975.26
2017-10-02T07:53:47.401Z,975.33
2017-10-02T07:54:47.520Z,975.31
2017-10-02T07:55:47.370Z,975.32
2017-10-02T07:56:47.223Z,975.31
2017-10-02T07:57:47.731Z,975.32
2017-10-02T07:58:47.433Z,975.33
2017-10-02T07:59:47.102Z,975.34
2017-10-02T08:00:47.375Z,975.33
2017-10-02T08:01:47.247Z,975.35
2017-10-02T08:02:47.594Z,975.39
2017-10-02T08:03:47.558Z,975.39
2017-10-02T08:04:47.616Z,975.40
2017-10-02T08:05:47.649Z,975.35
2017-10-02T08:06:47.923Z,975.32
2017-10-02T08:07:47.542Z,975.32
2017-10-02T08:08:47.641Z,975.33
2017-10-02T08:09:47.615Z,975.36
2017-10-02T08:10:48.425Z,975.37
2017-10-02T08:11:47.931Z,975.35
2017-10-02T08:12:47.947Z,975.35
2017-10-02T08:13:47.813Z,975.36
2017-10-02T08:14:47.971Z,975.36
2017-10-02T08:15:48.179Z,975.35
2017-10-02T08:16:48.552Z,975.37
2017-10-02T08:17:48.080Z,975.39
2017-10-02T08:18:48.493Z,975.35
2017-10-02T08:19:48.299Z,975.36
2017-10-02T08:20:48.262Z,975.37
2017-10-02T08:21:48.690Z,975.38
2017-10-02T08:22:48.180Z,975.39
2017-10-02T08:23:48.350Z,975.39
2017-10-02T08:24:48.401Z,975.44
2017-10-02T08:25:48.414Z,975.44
2017-10-02T08:26:48.783Z,975.41
2017-10-02T08:27:49.159Z,975.42
2017-10-02T08:28:48.919Z,975.42
2017-10-02T08:29:49.069Z,975.44
2017-10-02T08:30:48.814Z,975.41
2017-10-02T08:31:48.966Z,975.43
2017-10-02T08:32:49.323Z,975.46
2017-10-02T08:33:49.330Z,975.43
2017-10-02T08:34:49.112Z,975.44
2017-10-02T08:35:49.059Z,975.41
2017-10-02T08:36:49.123Z,975.41
2017-10-02T08:37:49.707Z,975.43
2017-10-02T08:38:49.346Z,975.41
2017-10-02T08:39:49.607Z,975.42
2017-10-02T08:40:49.463Z,975.43
2017-10-02T08:41:49.385Z,975.42
2017-10-02T08:42:49.395Z,975.38
2017-10-02T08:43:49.619Z,975.37
2017-10-02T08:44:50.005Z,975.37
2017-10-02T08:45:49.492Z,975.38
2017-10-02T08:46:49.552Z,975.41
2017-10-02T08:47:50.127Z,975.39
2017-10-02T08:48:49.632Z,975.40
2017-10-02T08:49:49.734Z,975.38
2017-10-02T08:50:49.922Z,975.40
2017-10-02T08:51:50.120Z,975.38
2017-10-02T08:52:49.960Z,975.36
2017-10-02T08:53:50.192Z,975.36
2017-10-02T08:54:50.201Z,975.32
2017-10-02T08:55:49.978Z,975.35
2017-10-02T08:56:50.269Z,975.31
2017-10-02T08:57:50.336Z,975.30
2017-10-02T08:58:50.234Z,975.30
2017-10-02T08:59:50.054Z,975.27
2017-10-02T09:00:50.383Z,975.25
2017-10-02T09:01:50.603Z,975.24
2017-10-02T09:02:50.737Z,975.26
2017-10-02T09:03:50.438Z,975.22
2017-10-02T09:04:50.679Z,975.20
2017-10-02T09:05:50.895Z,975.18
2017-10-02T09:06:51.138Z,975.16
2017-10-02T09:07:50.925Z,975.17
2017-10-02T09:08:50.591Z,975.18
2017-10-02T09:09:51.384Z,975.14
2017-10-02T09:10:50.917Z,975.18
2017-10-02T09:11:50.792Z,975.15
2017-10-02T09:12:51.161Z,975.18
2017-10-02T09:13:51.128Z,975.17
2017-10-02T09:14:50.975Z,975.16
2017-10-02T09:15:51.386Z,975.18
2017-10-02T09:16:51.303Z,975.16
2017-10-02T09:17:51.371Z,975.13
2017-10-02T09:18:51.706Z,975.16
2017-10-02T09:19:51.220Z,975.13
2017-10-02T09:20:51.347Z,975.14
2017-10-02T09:21:51.565Z,975.12
2017-10-02T09:22:51.403Z,975.10
2017-10-02T09:23:51.757Z,975.12
2017-10-02T09:24:51.570Z,975.13
2017-10-02T09:25:51.758Z,975.08
2017-10-02T09:26:51.507Z,975.07
2017-10-02T09:27:52.221Z,975.06
2017-10-02T09:28:51.723Z,975.06
2017-10-02T09:29:51.888Z,975.02
2017-10-02T09:30:51.787Z,975.04
2017-10-02T09:31:51.966Z,975.00
2017-10-02T09:32:52.063Z,974.99
2017-10-02T09:33:52.115Z,974.97
2017-10-02T09:34:51.843Z,974.99
2017-10-02T09:35:52.466Z,974.97
2017-10-02T09:36:52.128Z,974.95
2017-10-02T09:37:52.080Z,974.98
2017-10-02T09:38:52.380Z,974.97
2017-10-02T09:39:52.531Z,974.95
2017-10-02T09:40:52.590Z,974.95
2017-10-02T09:41:52.489Z,974.93
2017-10-02T09:42:52.733Z,974.96
2017-10-02T09:43:52.574Z,974.94
2017-10-02T09:44:52.673Z,974.96
2017-10-02T09:45:53.157Z,974.96
2017-10-02T09:46:52.642Z,974.94
2017-10-02T09:47:52.699Z,974.96
2017-10-02T09:48:52.705Z,974.98
2017-10-02T09:49:52.994Z,974.96
2017-10-02T09:50:52.922Z,974.92
2017-10-02T09:51:52.969Z,974.88
2017-10-02T09:52:53.004Z,974.86
2017-10-02T09:53:53.258Z,974.87
2017-10-02T09:54:53.241Z,974.86
2017-10-02T09:55:53.251Z,974.91
2017-10-02T09:56:53.496Z,974.93
2017-10-02T09:57:53.286Z,974.92
2017-10-02T09:58:53.206Z,974.93
2017-10-02T09:59:53.559Z,974.93
2017-10-02T10:00:53.288Z,974.99
2017-10-02T10:01:53.345Z,975.00
2017-10-02T10:02:53.686Z,974.97
2017-10-02T10:03:53.783Z,974.92
2017-10-02T10:04:53.796Z,974.93
2017-10-02T10:05:53.784Z,974.91
2017-10-02T10:06:53.981Z,974.91
2017-10-02T10:07:54.322Z,974.88
2017-10-02T10:08:54.425Z,974.85
2017-10-02T10:09:54.331Z,974.86
2017-10-02T10:10:54.269Z,974.85
2017-10-02T10:11:54.133Z,974.86
2017-10-02T10:12:54.410Z,974.85
2017-10-02T10:13:54.531Z,974.90
2017-10-02T10:14:54.458Z,974.89
2017-10-02T10:15:55.271Z,974.84
2017-10-02T10:16:54.739Z,974.85
2017-10-02T10:17:54.357Z,974.88
2017-10-02T10:18:54.500Z,974.88
2017-10-02T10:19:54.562Z,974.87
2017-10-02T10:20:54.807Z,974.88
2017-10-02T10:21:54.894Z,974.88
2017-10-02T10:22:54.951Z,974.90
2017-10-02T10:23:55.212Z,974.87
2017-10-02T10:24:55.182Z,974.83
2017-10-02T10:25:55.091Z,974.83
2017-10-02T10:26:55.223Z,974.79
2017-10-02T10:27:55.240Z,974.79
2017-10-02T10:28:55.432Z,974.84
2017-10-02T10:29:55.057Z,974.84
2017-10-02T10:30:55.155Z,974.85
2017-10-02T10:31:55.112Z,974.85
2017-10-02T10:32:55.395Z,974.87
2017-10-02T10:33:55.303Z,974.85
2017-10-02T10:34:55.612Z,974.86
2017-10-02T10:35:55.528Z,974.85
2017-10-02T10:36:55.327Z,974.88
2017-10-02T10:37:55.316Z,974.88
2017-10-02T10:38:55.594Z,974.86
2017-10-02T10:39:55.550Z,974.85
2017-10-02T10:40:55.357Z,974.89
2017-10-02T10:41:55.481Z,974.92
2017-10-02T10:42:55.361Z,974.93
2017-10-02T10:43:55.425Z,974.90
2017-10-02T10:44:55.716Z,974.94
2017-10-02T10:45:56.333Z,974.95
2017-10-02T10:46:55.702Z,974.98
2017-10-02T10:47:56.105Z,975.01
2017-10-02T10:48:55.870Z,975.02
2017-10-02T10:49:55.684Z,975.02
2017-10-02T10:50:55.832Z,975.01
2017-10-02T10:51:56.321Z,974.97
2017-10-02T10:52:56.400Z,974.99
2017-10-02T10:53:56.091Z,974.91
2017-10-02T10:54:55.920Z,974.93
2017-10-02T10:55:55.988Z,974.95
2017-10-02T10:56:56.363Z,974.88
2017-10-02T10:57:56.370Z,974.89
2017-10-02T10:58:56.454Z,974.93
2017-10-02T10:59:56.620Z,974.86
2017-10-02T11:00:56.243Z,974.90
2017-10-02T11:01:56.758Z,974.87
2017-10-02T11:02:56.376Z,974.85
2017-10-02T11:03:56.426Z,974.83
2017-10-02T11:04:56.466Z,974.86
2017-10-02T11:05:56.495Z,974.82
2017-10-02T11:06:56.886Z,974.83
2017-10-02T11:07:57.057Z,974.83
2017-10-02T11:08:56.944Z,974.83
2017-10-02T11:09:56.756Z,974.80
2017-10-02T11:10:57.357Z,974.78
2017-10-02T11:11:57.051Z,974.75
2017-10-02T11:12:57.558Z,974.76
2017-10-02T11:13:57.163Z,974.73
2017-10-02T11:14:57.084Z,974.76
2017-10-02T11:15:57.667Z,974.73
2017-10-02T11:16:57.080Z,974.75
2017-10-02T11:17:57.258Z,974.69
2017-10-02T11:18:57.242Z,974.70
2017-10-02T11:19:57.599Z,974.71
2017-10-02T11:20:57.352Z,974.68
2017-10-02T11:21:57.173Z,974.67
2017-10-02T11:22:58.190Z,974.65
2017-10-02T11:23:57.531Z,974.65
2017-10-02T11:24:57.475Z,974.64
2017-10-02T11:25:57.734Z,974.61
2017-10-02T11:26:58.005Z,974.62
2017-10-02T11:27:57.750Z,974.57
2017-10-02T11:28:57.897Z,974.56
2017-10-02T11:29:57.894Z,974.58
2017-10-02T11:30:57.776Z,974.57
2017-10-02T11:31:57.876Z,974.54
2017-10-02T11:32:58.262Z,974.53
2017-10-02T11:33:58.080Z,974.50
2017-10-02T11:34:58.153Z,974.52
2017-10-02T11:35:58.206Z,974.52
2017-10-02T11:36:58.263Z,974.52
2017-10-02T11:37:58.899Z,974.49
2017-10-02T11:38:58.931Z,974.46
2017-10-02T11:39:58.276Z,974.50
2017-10-02T11:40:58.784Z,974.50
2017-10-02T11:41:58.549Z,974.49
2017-10-02T11:42:58.556Z,974.49
2017-10-02T11:43:58.820Z,974.48
2017-10-02T11:44:58.499Z,974.46
2017-10-02T11:45:58.622Z,974.46
2017-10-02T11:46:58.831Z,974.44
2017-10-02T11:47:58.758Z,974.44
2017-10-02T11:48:58.983Z,974.41
2017-10-02T11:49:59.035Z,974.41
2017-10-02T11:50:59.157Z,974.47
2017-10-02T11:51:58.857Z,974.43
2017-10-02T11:52:58.973Z,974.45
2017-10-02T11:53:59.237Z,974.40
2017-10-02T11:54:59.159Z,974.39
2017-10-02T11:55:59.026Z,974.42
2017-10-02T11:56:59.054Z,974.44
2017-10-02T11:57:59.369Z,974.45
2017-10-02T11:58:59.759Z,974.42
2017-10-02T11:59:59.456Z,974.47
2017-10-02T12:00:59.789Z,974.44
2017-10-02T12:02:00.003Z,974.43
2017-10-02T12:02:59.636Z,974.45
2017-10-02T12:03:59.979Z,974.43
2017-10-02T12:04:59.732Z,974.39
2017-10-02T12:05:59.596Z,974.38
2017-10-02T12:06:59.685Z,974.35
2017-10-02T12:07:59.902Z,974.34
2017-10-02T12:08:59.972Z,974.33
2017-10-02T12:09:59.937Z,974.34
2017-10-02T12:11:00.045Z,974.33
2017-10-02T12:12:00.334Z,974.33
2017-10-02T12:13:00.013Z,974.33
2017-10-02T12:14:00.409Z,974.26
2017-10-02T12:15:00.048Z,974.30
2017-10-02T12:16:00.633Z,974.28
2017-10-02T12:17:00.157Z,974.30
2017-10-02T12:18:01.079Z,974.33
2017-10-02T12:19:00.292Z,974.37
2017-10-02T12:20:00.776Z,974.42
2017-10-02T12:21:00.406Z,974.39
2017-10-02T12:22:00.423Z,974.38
2017-10-02T12:23:00.444Z,974.42
2017-10-02T12:24:00.572Z,974.40
2017-10-02T12:25:00.873Z,974.40
2017-10-02T12:26:00.577Z,974.40
2017-10-02T12:27:00.632Z,974.37
2017-10-02T12:28:00.853Z,974.38
2017-10-02T12:29:00.784Z,974.39